Time;durP1;ratioP1;P1;durP2;ratioP2;P2;SDS_P1;SDS_P2;PMS_P1;PMS_P2;Temp;Humidity;BMP_temperature;BMP_pressure;BME280_temperature;BME280_humidity;BME280_pressure;Samples;Min_cycle;Max_cycle;Signal;HPM_P1;HPM_P2
2022/03/08 00:00:25;;;;;;;26.33;13.85;;;;;;;-3.74;100.00;95499.44;4973594;28;20037;-54
2022/03/08 00:03:00;;;;;;;28.30;14.63;;;;;;;-3.75;100.00;95492.59;4973574;28;20062;-55
2022/03/08 00:05:26;;;;;;;24.10;13.50;;;;;;;-3.78;100.00;95490.31;4973648;28;20030;-56
2022/03/08 00:07:58;;;;;;;28.45;14.65;;;;;;;-3.81;100.00;95483.59;4956190;28;20105;-53
2022/03/08 00:10:30;;;;;;;28.15;15.43;;;;;;;-3.81;100.00;95480.16;4976109;28;20061;-54
2022/03/08 00:12:59;;;;;;;25.42;14.18;;;;;;;-3.84;100.00;95485.72;4959798;28;20038;-54
2022/03/08 00:15:25;;;;;;;24.90;14.65;;;;;;;-3.86;100.00;95472.81;4973586;28;20030;-56
2022/03/08 00:17:52;;;;;;;26.25;14.65;;;;;;;-3.92;100.00;95473.47;4973273;28;20030;-54
2022/03/08 00:20:19;;;;;;;26.17;14.85;;;;;;;-3.96;100.00;95474.78;4956008;28;20058;-56
2022/03/08 00:22:45;;;;;;;24.77;14.18;;;;;;;-4.05;100.00;95473.16;4973419;28;20046;-57
2022/03/08 00:25:17;;;;;;;26.67;15.15;;;;;;;-4.18;100.00;95467.63;4958081;28;20114;-55
2022/03/08 00:27:47;;;;;;;25.70;14.63;;;;;;;-4.31;100.00;95472.53;4957254;28;20039;-56
2022/03/08 00:30:22;;;;;;;27.08;14.68;;;;;;;-4.48;100.00;95474.31;4967967;28;20508;-57
2022/03/08 00:32:50;;;;;;;30.42;15.75;;;;;;;-4.66;100.00;95469.25;4977138;28;20062;-55
2022/03/08 00:35:19;;;;;;;26.02;14.73;;;;;;;-4.78;100.00;95475.75;4977210;28;20058;-55
2022/03/08 00:37:47;;;;;;;26.27;14.93;;;;;;;-4.90;100.00;95456.94;4956650;29;20398;-56
2022/03/08 00:40:23;;;;;;;26.30;14.77;;;;;;;-4.98;100.00;95447.31;4974894;28;20064;-56
2022/03/08 00:42:50;;;;;;;25.92;15.10;;;;;;;-4.99;100.00;95426.59;4976994;28;20026;-56
2022/03/08 00:45:16;;;;;;;27.33;15.20;;;;;;;-4.93;100.00;95412.84;4975989;28;20390;-58
2022/03/08 00:47:47;;;;;;;24.98;14.38;;;;;;;-4.76;100.00;95401.47;4985982;28;20022;-55
2022/03/08 00:50:19;;;;;;;25.65;14.02;;;;;;;-4.68;100.00;95384.94;4996358;28;20473;-57
2022/03/08 00:52:46;;;;;;;30.23;14.75;;;;;;;-4.61;100.00;95379.88;4996392;28;20397;-53
2022/03/08 00:55:13;;;;;;;28.55;14.65;;;;;;;-4.57;100.00;95381.19;4996123;28;20026;-54
2022/03/08 00:57:39;;;;;;;25.90;15.23;;;;;;;-4.55;100.00;95363.56;4996187;28;20030;-54
2022/03/08 01:00:08;;;;;;;25.33;14.77;;;;;;;-4.55;100.00;95355.72;4996053;28;20393;-55
2022/03/08 01:02:36;;;;;;;25.52;15.00;;;;;;;-4.55;100.00;95347.88;4996158;28;20119;-53
2022/03/08 01:05:02;;;;;;;24.98;14.70;;;;;;;-4.54;100.00;95346.88;4996129;28;20032;-53
2022/03/08 01:07:28;;;;;;;28.58;14.43;;;;;;;-4.50;100.00;95345.56;4996159;28;20026;-54
2022/03/08 01:09:53;;;;;;;25.48;14.68;;;;;;;-4.45;100.00;95338.88;4995537;28;20042;-53
2022/03/08 01:12:18;;;;;;;27.50;15.10;;;;;;;-4.48;100.00;95333.13;4977184;28;20047;-60
2022/03/08 01:14:53;;;;;;;31.05;15.32;;;;;;;-4.49;100.00;95340.16;4978294;28;20027;-59
2022/03/08 01:17:18;;;;;;;25.10;14.30;;;;;;;-4.50;100.00;95340.34;4978007;28;20106;-57
2022/03/08 01:19:47;;;;;;;27.65;14.65;;;;;;;-4.55;100.00;95338.22;4978495;28;20482;-60
2022/03/08 01:22:14;;;;;;;31.55;15.15;;;;;;;-4.62;100.00;95346.91;4960957;28;20390;-56
2022/03/08 01:24:43;;;;;;;24.85;13.88;;;;;;;-4.68;100.00;95343.94;4978002;28;20027;-57
2022/03/08 01:27:08;;;;;;;23.73;14.55;;;;;;;-4.70;100.00;95343.28;4960457;28;20386;-60
2022/03/08 01:29:40;;;;;;;26.35;14.38;;;;;;;-4.76;100.00;95346.59;4960511;28;20041;-60
2022/03/08 01:32:06;;;;;;;25.98;13.82;;;;;;;-4.90;100.00;95347.22;4978249;28;20278;-60
2022/03/08 01:34:31;;;;;;;23.63;14.20;;;;;;;-5.02;100.00;95351.94;4978098;28;20030;-60
2022/03/08 01:37:01;;;;;;;27.38;15.13;;;;;;;-5.14;100.00;95355.84;4959976;28;20030;-59
2022/03/08 01:39:27;;;;;;;28.73;15.35;;;;;;;-5.20;100.00;95353.09;4959742;28;20050;-58
2022/03/08 01:41:56;;;;;;;26.88;15.23;;;;;;;-5.28;100.00;95349.47;4977302;28;20058;-59
2022/03/08 01:44:21;;;;;;;32.25;15.52;;;;;;;-5.33;100.00;95343.91;4959651;28;20053;-60
2022/03/08 01:46:47;;;;;;;27.35;14.55;;;;;;;-5.33;100.00;95335.25;4976953;28;20482;-60
2022/03/08 01:49:12;;;;;;;28.13;15.35;;;;;;;-5.32;100.00;95326.44;4976775;28;20162;-58
2022/03/08 01:51:47;;;;;;;28.80;14.98;;;;;;;-5.29;100.00;95321.75;4959305;28;20481;-60
2022/03/08 01:54:12;;;;;;;26.67;14.07;;;;;;;-5.34;100.00;95310.94;4976112;28;20038;-60
2022/03/08 01:56:40;;;;;;;26.80;14.77;;;;;;;-5.41;100.00;95302.16;4975974;28;20031;-60
2022/03/08 01:59:06;;;;;;;26.70;14.45;;;;;;;-5.57;100.00;95310.75;4976027;28;20026;-59
2022/03/08 02:01:31;;;;;;;26.40;14.88;;;;;;;-5.70;100.00;95301.78;4959138;28;20038;-56
2022/03/08 02:04:00;;;;;;;28.33;15.35;;;;;;;-5.86;100.00;95308.59;4976522;28;20097;-56
2022/03/08 02:06:25;;;;;;;26.55;14.32;;;;;;;-6.00;100.00;95301.38;4959771;28;20542;-56
2022/03/08 02:08:50;;;;;;;28.20;15.38;;;;;;;-6.10;100.00;95305.91;4977650;28;20055;-61
2022/03/08 02:11:16;;;;;;;27.05;14.73;;;;;;;-6.19;100.00;95304.22;4979389;28;20474;-57
2022/03/08 02:13:44;;;;;;;26.20;14.60;;;;;;;-6.29;100.00;95291.34;4968007;28;20371;-57
2022/03/08 02:16:19;;;;;;;26.52;14.68;;;;;;;-6.29;100.00;95293.13;4977694;28;20038;-56
2022/03/08 02:18:45;;;;;;;25.52;14.43;;;;;;;-6.09;100.00;95259.78;4977484;28;20034;-57
2022/03/08 02:21:10;;;;;;;29.45;15.80;;;;;;;-5.96;100.00;95247.94;4944083;28;20053;-60
2022/03/08 02:23:36;;;;;;;27.80;14.18;;;;;;;-5.93;100.00;95238.97;4977518;28;20485;-59
2022/03/08 02:26:07;;;;;;;26.98;14.68;;;;;;;-5.86;100.00;95235.56;4960158;28;20031;-56
2022/03/08 02:28:33;;;;;;;24.65;14.45;;;;;;;-5.84;100.00;95227.56;4976776;28;20047;-59
2022/03/08 02:31:01;;;;;;;28.52;15.18;;;;;;;-5.80;100.00;95225.44;4956141;29;20065;-59
2022/03/08 02:33:27;;;;;;;28.67;15.57;;;;;;;-5.79;100.00;95229.69;4970132;28;20466;-57
2022/03/08 02:35:52;;;;;;;26.92;15.10;;;;;;;-5.80;100.00;95230.66;4974758;28;20094;-57
2022/03/08 02:38:18;;;;;;;26.65;14.55;;;;;;;-5.80;100.00;95222.84;4958320;28;20501;-59
2022/03/08 02:40:45;;;;;;;28.33;15.85;;;;;;;-5.78;100.00;95220.88;4975687;28;20027;-57
2022/03/08 02:43:12;;;;;;;25.55;13.90;;;;;;;-5.78;100.00;95215.66;4975243;28;20030;-57
2022/03/08 02:45:52;;;;;;;25.58;13.98;;;;;;;-5.75;100.00;95221.38;4975335;28;20107;-56
2022/03/08 02:48:18;;;;;;;26.60;13.95;;;;;;;-5.72;100.00;95222.84;4974376;28;20023;-58
2022/03/08 02:50:49;;;;;;;30.60;15.45;;;;;;;-5.70;100.00;95221.69;4974577;28;20081;-58
2022/03/08 02:53:21;;;;;;;26.08;14.35;;;;;;;-5.65;100.00;95213.38;4974868;28;20152;-56
2022/03/08 02:55:47;;;;;;;28.63;14.73;;;;;;;-5.62;100.00;95210.47;4974829;28;20507;-57
2022/03/08 02:58:13;;;;;;;30.48;15.10;;;;;;;-5.61;100.00;95207.69;4974652;28;20026;-57
2022/03/08 03:00:38;;;;;;;25.98;13.85;;;;;;;-5.62;100.00;95213.06;4974626;28;20023;-57
2022/03/08 03:03:05;;;;;;;26.65;15.20;;;;;;;-5.67;100.00;95210.94;4974722;28;20385;-56
2022/03/08 03:05:31;;;;;;;25.55;14.65;;;;;;;-5.71;100.00;95216.66;4974663;28;20078;-60
2022/03/08 03:07:59;;;;;;;25.48;14.60;;;;;;;-5.71;100.00;95212.25;4974829;28;20035;-56
2022/03/08 03:10:25;;;;;;;26.33;13.50;;;;;;;-5.70;100.00;95213.06;4974535;28;20482;-57
2022/03/08 03:12:52;;;;;;;26.95;14.63;;;;;;;-5.69;100.00;95209.47;4983600;28;20061;-57
2022/03/08 03:15:29;;;;;;;25.60;14.27;;;;;;;-5.67;100.00;95207.50;4940935;28;20050;-56
2022/03/08 03:17:58;;;;;;;25.77;14.15;;;;;;;-5.65;100.00;95208.16;4974714;28;20082;-61
2022/03/08 03:20:28;;;;;;;25.33;14.15;;;;;;;-5.68;100.00;95206.69;4974421;28;20034;-60
2022/03/08 03:22:53;;;;;;;26.30;14.45;;;;;;;-5.69;100.00;95214.69;4957500;28;20133;-60
2022/03/08 03:25:19;;;;;;;28.60;14.50;;;;;;;-5.71;100.00;95211.44;4974216;28;20101;-61
2022/03/08 03:27:45;;;;;;;24.88;14.13;;;;;;;-5.74;100.00;95209.16;4956739;28;20030;-61
2022/03/08 03:30:13;;;;;;;30.00;14.68;;;;;;;-5.78;100.00;95202.59;4974034;28;20031;-61
2022/03/08 03:32:42;;;;;;;25.17;14.02;;;;;;;-5.86;100.00;95204.25;4974163;28;20458;-61
2022/03/08 03:35:11;;;;;;;26.15;14.40;;;;;;;-5.88;100.00;95193.13;4974052;28;20458;-61
2022/03/08 03:37:37;;;;;;;28.95;14.43;;;;;;;-5.88;100.00;95197.53;4973934;28;20035;-61
2022/03/08 03:40:04;;;;;;;25.85;13.93;;;;;;;-5.87;100.00;95199.16;4956500;28;20086;-59
2022/03/08 03:42:30;;;;;;;31.88;14.73;;;;;;;-5.92;100.00;95207.53;4974092;28;20148;-61
2022/03/08 03:44:55;;;;;;;28.58;15.60;;;;;;;-5.96;100.00;95198.41;4974341;28;20481;-59
2022/03/08 03:47:21;;;;;;;26.13;14.38;;;;;;;-5.97;100.00;95199.38;4974098;28;20059;-61
2022/03/08 03:49:46;;;;;;;24.67;13.98;;;;;;;-5.96;100.00;95197.59;4956013;28;20028;-60
2022/03/08 03:52:12;;;;;;;26.33;14.15;;;;;;;-5.97;100.00;95194.16;4956769;28;20061;-59
2022/03/08 03:54:37;;;;;;;31.80;14.68;;;;;;;-5.97;100.00;95196.78;4973825;28;20373;-60
2022/03/08 03:57:03;;;;;;;29.48;15.60;;;;;;;-5.97;100.00;95195.94;4973925;28;20038;-60
2022/03/08 03:59:28;;;;;;;23.05;13.82;;;;;;;-5.96;100.00;95194.97;4973042;28;20031;-59
2022/03/08 04:01:53;;;;;;;27.00;13.35;;;;;;;-5.96;100.00;95190.56;4973915;28;20031;-60
2022/03/08 04:04:25;;;;;;;27.42;15.05;;;;;;;-5.99;100.00;95190.88;4956611;28;20026;-60
2022/03/08 04:06:53;;;;;;;28.15;14.23;;;;;;;-6.01;100.00;95192.03;4953578;29;20032;-61
2022/03/08 04:09:25;;;;;;;26.38;14.02;;;;;;;-6.02;100.00;95188.59;4970305;28;20049;-59
2022/03/08 04:11:50;;;;;;;24.05;14.07;;;;;;;-6.03;100.00;95183.53;4975421;28;20018;-59
2022/03/08 04:14:19;;;;;;;27.50;15.10;;;;;;;-6.04;100.00;95179.31;4975575;28;20077;-61
2022/03/08 04:16:44;;;;;;;28.65;15.20;;;;;;;-6.04;100.00;95179.31;4973841;28;20023;-60
2022/03/08 04:19:09;;;;;;;25.08;13.82;;;;;;;-5.94;100.00;95179.97;4973778;28;20486;-61
2022/03/08 04:21:35;;;;;;;28.35;14.60;;;;;;;-5.85;100.00;95187.63;4973841;28;20235;-61
2022/03/08 04:24:00;;;;;;;25.90;14.30;;;;;;;-5.79;100.00;95173.09;4973678;28;20027;-61
2022/03/08 04:26:29;;;;;;;28.15;13.68;;;;;;;-5.70;100.00;95179.16;4973674;28;20029;-61
2022/03/08 04:28:54;;;;;;;27.05;14.80;;;;;;;-5.65;100.00;95169.84;4973620;28;20027;-61
2022/03/08 04:31:19;;;;;;;27.63;13.52;;;;;;;-5.63;100.00;95175.72;4973718;28;20023;-58
2022/03/08 04:33:45;;;;;;;27.85;14.30;;;;;;;-5.61;100.00;95178.19;4973697;28;20031;-60
2022/03/08 04:36:10;;;;;;;28.25;14.77;;;;;;;-5.65;100.00;95190.72;4973885;28;20022;-59
2022/03/08 04:38:35;;;;;;;27.33;14.48;;;;;;;-5.73;100.00;95193.34;4973545;28;20070;-60
2022/03/08 04:41:07;;;;;;;30.90;15.05;;;;;;;-5.85;100.00;95202.47;4974039;28;20038;-60
2022/03/08 04:43:35;;;;;;;25.98;13.65;;;;;;;-5.94;100.00;95201.66;4958086;28;20077;-60
2022/03/08 04:46:03;;;;;;;29.45;15.13;;;;;;;-6.04;100.00;95200.16;4974969;28;20027;-60
2022/03/08 04:48:31;;;;;;;27.00;14.65;;;;;;;-6.19;100.00;95207.78;4966772;28;20026;-61
2022/03/08 04:50:57;;;;;;;27.50;14.57;;;;;;;-6.32;100.00;95207.41;4941411;28;20030;-61
2022/03/08 04:53:25;;;;;;;26.27;14.90;;;;;;;-6.49;100.00;95211.78;4957529;28;20080;-61
2022/03/08 04:56:04;;;;;;;28.23;14.20;;;;;;;-6.67;100.00;95213.63;4975087;28;20038;-61
2022/03/08 04:58:29;;;;;;;28.73;14.55;;;;;;;-6.74;100.00;95205.63;4941975;28;20031;-60
2022/03/08 05:00:55;;;;;;;26.40;14.63;;;;;;;-6.84;100.00;95208.38;4974851;28;20030;-58
2022/03/08 05:03:29;;;;;;;25.65;13.98;;;;;;;-6.93;100.00;95211.09;4974958;28;20170;-59
2022/03/08 05:05:58;;;;;;;26.85;14.10;;;;;;;-7.04;100.00;95196.53;4957489;28;20101;-59
2022/03/08 05:08:23;;;;;;;27.77;14.85;;;;;;;-7.15;100.00;95208.03;4974917;28;20034;-58
2022/03/08 05:10:48;;;;;;;27.17;14.18;;;;;;;-7.24;100.00;95197.72;5023144;23;20049;-57
2022/03/08 05:13:14;;;;;;;27.88;13.95;;;;;;;-7.32;100.00;95194.06;5014372;28;20030;-55
2022/03/08 05:15:40;;;;;;;28.50;14.77;;;;;;;-7.40;100.00;95188.00;5015425;28;20025;-58
2022/03/08 05:18:05;;;;;;;26.67;14.68;;;;;;;-7.49;100.00;95186.31;5015350;28;20032;-59
2022/03/08 05:20:31;;;;;;;29.13;15.68;;;;;;;-7.54;100.00;95176.38;5001531;28;20030;-53
2022/03/08 05:22:56;;;;;;;30.15;15.35;;;;;;;-7.56;100.00;95170.50;4995863;28;20030;-56
2022/03/08 05:25:22;;;;;;;30.83;15.02;;;;;;;-7.52;100.00;95158.81;4995711;28;20026;-58
2022/03/08 05:27:48;;;;;;;33.03;17.17;;;;;;;-7.53;100.00;95151.97;5021417;23;20064;-57
2022/03/08 05:30:20;;;;;;;26.20;15.20;;;;;;;-7.55;100.00;95135.72;5034867;28;20025;-58
2022/03/08 05:32:55;;;;;;;;;;;;;;;-7.58;100.00;95127.41;4994844;28;20092;-60
2022/03/08 05:35:23;;;;;;;27.30;13.57;;;;;;;-7.65;100.00;95130.63;5012949;28;20508;-58
2022/03/08 05:37:49;;;;;;;29.10;15.57;;;;;;;-7.74;100.00;95121.13;5015043;28;20033;-56
2022/03/08 05:40:14;;;;;;;27.90;15.10;;;;;;;-7.81;100.00;95122.72;5014882;28;20026;-58
2022/03/08 05:42:40;;;;;;;25.00;13.82;;;;;;;-7.79;100.00;95104.34;5014962;28;20472;-59
2022/03/08 05:45:07;;;;;;;27.15;14.18;;;;;;;-7.80;100.00;95092.31;5014577;28;20562;-59
2022/03/08 05:47:33;;;;;;;30.88;14.70;;;;;;;-7.78;100.00;95082.59;4994073;28;20029;-59
2022/03/08 05:49:59;;;;;;;31.80;14.70;;;;;;;-7.77;100.00;95076.41;4996302;28;20026;-57
2022/03/08 05:52:24;;;;;;;31.23;14.85;;;;;;;-7.81;100.00;95059.50;4997391;28;20515;-56
2022/03/08 05:54:50;;;;;;;31.27;15.07;;;;;;;-7.84;100.00;95059.78;5014722;28;20492;-53
2022/03/08 05:57:18;;;;;;;27.52;15.00;;;;;;;-7.79;100.00;95065.34;5014592;28;20026;-56
2022/03/08 05:59:44;;;;;;;33.92;15.95;;;;;;;-7.76;100.00;95059.84;5014444;28;20025;-53
2022/03/08 06:02:13;;;;;;;33.47;14.75;;;;;;;-7.77;100.00;95060.81;5013256;28;20022;-57
2022/03/08 06:04:38;;;;;;;33.15;17.38;;;;;;;-7.82;100.00;95063.03;5013299;28;20029;-54
2022/03/08 06:07:10;;;;;;;30.60;16.42;;;;;;;-7.83;100.00;95067.44;5014574;28;20022;-57
2022/03/08 06:09:38;;;;;;;28.60;15.43;;;;;;;-7.80;100.00;95067.16;5014428;28;20049;-57
2022/03/08 06:12:04;;;;;;;31.88;15.98;;;;;;;-7.73;100.00;95059.53;5007067;28;20035;-54
2022/03/08 06:14:30;;;;;;;27.95;14.73;;;;;;;-7.42;100.00;95057.25;5000334;28;20022;-55
2022/03/08 06:16:56;;;;;;;32.08;16.48;;;;;;;-7.28;100.00;95053.25;4994000;28;20027;-54
2022/03/08 06:19:21;;;;;;;31.15;16.48;;;;;;;-7.23;100.00;95048.41;5014212;28;20026;-56
2022/03/08 06:21:49;;;;;;;29.92;15.80;;;;;;;-7.21;100.00;95049.06;5011173;28;20033;-58
2022/03/08 06:24:15;;;;;;;28.42;15.65;;;;;;;-7.18;100.00;95054.75;5017700;28;20060;-52
2022/03/08 06:26:40;;;;;;;29.27;15.48;;;;;;;-7.16;100.00;95052.84;4993686;28;20421;-54
2022/03/08 06:29:08;;;;;;;29.00;15.27;;;;;;;-7.13;100.00;95049.09;5012519;28;20022;-52
2022/03/08 06:31:34;;;;;;;32.78;16.42;;;;;;;-7.07;100.00;95053.66;5012082;28;20468;-55
2022/03/08 06:33:59;;;;;;;31.20;15.70;;;;;;;-7.03;100.00;95055.00;5014024;28;20034;-55
2022/03/08 06:36:24;;;;;;;33.42;16.95;;;;;;;-7.00;100.00;95044.25;5006050;28;20465;-57
2022/03/08 06:38:50;;;;;;;38.67;16.55;;;;;;;-6.98;100.00;95052.72;4992759;28;20088;-56
2022/03/08 06:41:15;;;;;;;32.60;15.30;;;;;;;-6.94;100.00;95059.25;5002692;28;20032;-53
2022/03/08 06:43:41;;;;;;;30.38;14.93;;;;;;;-6.85;100.00;95066.09;4965841;28;20066;-53
2022/03/08 06:46:06;;;;;;;33.78;16.75;;;;;;;-6.74;100.00;95067.59;5010215;28;20416;-52
2022/03/08 06:48:32;;;;;;;33.65;16.38;;;;;;;-6.63;100.00;95059.47;4993745;28;20028;-55
2022/03/08 06:50:57;;;;;;;33.63;16.80;;;;;;;-6.48;100.00;95070.91;5010259;28;20076;-52
2022/03/08 06:53:23;;;;;;;31.25;16.77;;;;;;;-6.33;100.00;95058.03;5010934;28;20106;-56
2022/03/08 06:55:51;;;;;;;31.05;15.63;;;;;;;-6.15;100.00;95065.72;4993308;28;20398;-53
2022/03/08 06:58:17;;;;;;;32.35;16.48;;;;;;;-6.03;100.00;95066.22;5013339;28;20112;-54
2022/03/08 07:00:42;;;;;;;32.38;16.25;;;;;;;-5.84;100.00;95064.06;5008580;28;20105;-58
2022/03/08 07:03:07;;;;;;;31.98;16.92;;;;;;;-5.66;100.00;95061.22;5016478;28;20076;-54
2022/03/08 07:05:33;;;;;;;33.92;17.23;;;;;;;-5.47;100.00;95064.47;5020811;28;20032;-55
2022/03/08 07:07:58;;;;;;;29.58;16.00;;;;;;;-5.31;100.00;95059.22;5008934;28;20108;-55
2022/03/08 07:10:23;;;;;;;32.72;16.30;;;;;;;-5.17;100.00;95055.09;4976976;28;20129;-54
2022/03/08 07:12:50;;;;;;;35.63;16.83;;;;;;;-5.05;100.00;95049.31;5013034;28;20084;-53
2022/03/08 07:15:15;;;;;;;33.15;16.08;;;;;;;-4.92;100.00;95055.78;5013352;28;20018;-54
2022/03/08 07:17:45;;;;;;;35.10;16.67;;;;;;;-4.79;100.00;95062.09;5013098;28;20022;-55
2022/03/08 07:20:17;;;;;;;29.23;15.43;;;;;;;-4.64;100.00;95059.56;4997725;28;20033;-53
2022/03/08 07:22:43;;;;;;;34.40;17.87;;;;;;;-4.53;100.00;95055.75;4994292;28;20068;-54
2022/03/08 07:25:13;;;;;;;27.13;14.63;;;;;;;-4.44;100.00;95063.38;5013060;28;20740;-58
2022/03/08 07:27:38;;;;;;;30.90;15.43;;;;;;;-4.32;100.00;95063.78;5010530;28;20053;-54
2022/03/08 07:30:06;;;;;;;32.65;16.73;;;;;;;-4.17;100.00;95067.28;5016332;28;20464;-57
2022/03/08 07:32:40;;;;;;;31.60;15.13;;;;;;;-3.93;100.00;95075.91;4993248;28;20574;-52
2022/03/08 07:35:06;;;;;;;31.75;15.05;;;;;;;-3.71;100.00;95076.88;5013138;28;20056;-54
2022/03/08 07:37:36;;;;;;;30.08;15.88;;;;;;;-3.48;100.00;95079.44;5012864;28;20030;-54
2022/03/08 07:40:07;;;;;;;30.42;15.00;;;;;;;-3.26;100.00;95084.66;5012666;28;20022;-53
2022/03/08 07:42:33;;;;;;;31.17;16.02;;;;;;;-3.15;100.00;95100.88;5012745;28;20097;-56
2022/03/08 07:45:02;;;;;;;32.13;15.57;;;;;;;-3.06;100.00;95108.47;4998678;28;20049;-51
2022/03/08 07:47:29;;;;;;;26.45;14.80;;;;;;;-2.78;100.00;95110.47;4995332;28;20026;-54
2022/03/08 07:49:58;;;;;;;27.35;14.95;;;;;;;-2.60;100.00;95126.66;5012571;28;20045;-54
2022/03/08 07:52:23;;;;;;;27.75;14.90;;;;;;;-2.44;100.00;95144.00;5012516;28;20057;-55
2022/03/08 07:54:52;;;;;;;31.00;16.55;;;;;;;-2.41;100.00;95170.66;4999290;28;20057;-60
2022/03/08 07:57:24;;;;;;;32.10;15.30;;;;;;;-2.20;100.00;95177.78;5012755;28;20112;-60
2022/03/08 07:59:49;;;;;;;26.50;14.75;;;;;;;-2.16;100.00;95196.63;4960607;28;20049;-63
2022/03/08 08:02:15;;;;;;;26.83;15.35;;;;;;;-2.17;100.00;95214.16;4994864;28;20029;-64
2022/03/08 08:04:40;;;;;;;26.45;15.35;;;;;;;-2.08;100.00;95228.78;5012544;28;20033;-60
2022/03/08 08:07:08;;;;;;;26.05;15.15;;;;;;;-1.97;100.00;95256.38;5012868;28;20021;-61
2022/03/08 08:09:34;;;;;;;27.50;15.43;;;;;;;-1.78;100.00;95262.88;5012439;28;20108;-63
2022/03/08 08:12:00;;;;;;;27.90;15.25;;;;;;;-1.65;100.00;95288.47;4993765;28;20022;-62
2022/03/08 08:14:26;;;;;;;28.55;16.70;;;;;;;-1.57;100.00;95304.94;5012568;28;20076;-63
2022/03/08 08:16:57;;;;;;;29.23;15.27;;;;;;;-1.40;100.00;95318.69;5012342;28;20036;-64
2022/03/08 08:19:26;;;;;;;24.95;15.27;;;;;;;-1.42;100.00;95348.75;4994957;28;20033;-63
2022/03/08 08:21:54;;;;;;;26.33;15.38;;;;;;;-1.49;100.00;95369.72;5012410;28;20120;-64
2022/03/08 08:24:28;;;;;;;30.17;16.77;;;;;;;-1.42;100.00;95375.84;4994826;28;20392;-65
2022/03/08 08:26:53;;;;;;;29.42;16.85;;;;;;;-1.51;100.00;95395.34;5012126;28;20081;-65
2022/03/08 08:29:19;;;;;;;26.83;15.20;;;;;;;-1.22;100.00;95403.19;4991239;28;20087;-66
2022/03/08 08:31:47;;;;;;;27.15;15.10;;;;;;;-1.01;100.00;95420.81;5011583;28;20018;-67
2022/03/08 08:34:15;;;;;;;28.45;15.57;;;;;;;-0.88;100.00;95438.53;5012360;28;20033;-66
2022/03/08 08:36:44;;;;;;;30.52;16.40;;;;;;;-0.79;100.00;95441.88;5010012;28;20075;-66
2022/03/08 08:39:10;;;;;;;28.63;15.90;;;;;;;-0.61;100.00;95458.88;5009859;28;20025;-66
2022/03/08 08:41:35;;;;;;;26.13;15.80;;;;;;;-0.35;100.00;95468.03;5012926;28;20022;-66
2022/03/08 08:44:00;;;;;;;26.70;15.90;;;;;;;-0.36;100.00;95490.09;5012062;28;20026;-66
2022/03/08 08:46:28;;;;;;;25.63;15.85;;;;;;;-0.64;100.00;95519.78;5013285;28;20484;-65
2022/03/08 08:48:53;;;;;;;28.60;16.42;;;;;;;-0.32;100.00;95528.22;5015745;28;20064;-66
2022/03/08 08:51:18;;;;;;;28.23;15.75;;;;;;;-0.07;100.00;95539.22;4999919;28;20088;-66
2022/03/08 08:53:44;;;;;;;25.00;15.25;;;;;;;-0.12;100.00;95557.38;4995942;28;20029;-66
2022/03/08 08:56:09;;;;;;;25.67;16.05;;;;;;;0.07;100.00;95569.13;5013810;28;20025;-66
2022/03/08 08:58:34;;;;;;;29.15;16.25;;;;;;;0.37;100.00;95573.25;5014012;28;20021;-67
2022/03/08 09:01:00;;;;;;;28.55;16.83;;;;;;;0.62;100.00;95586.84;5015038;28;20037;-67
2022/03/08 09:03:25;;;;;;;26.40;15.82;;;;;;;0.79;100.00;95600.56;5015704;28;20030;-66
2022/03/08 09:05:51;;;;;;;26.75;15.90;;;;;;;0.80;100.00;95626.75;5015865;28;20555;-67
2022/03/08 09:08:23;;;;;;;32.33;17.70;;;;;;;0.75;100.00;95638.84;5012857;28;20049;-66
2022/03/08 09:10:53;;;;;;;28.25;17.13;;;;;;;1.06;100.00;95638.50;4997872;28;20116;-67
2022/03/08 09:13:19;;;;;;;29.15;16.25;;;;;;;1.21;100.00;95649.78;4993915;28;20475;-65
2022/03/08 09:15:44;;;;;;;27.08;17.05;;;;;;;1.47;100.00;95662.31;4998720;28;20381;-65
2022/03/08 09:18:10;;;;;;;30.17;17.20;;;;;;;1.87;100.00;95667.81;5004757;28;20084;-65
2022/03/08 09:20:35;;;;;;;30.38;17.65;;;;;;;2.19;100.00;95668.97;4994664;28;20365;-65
2022/03/08 09:23:01;;;;;;;27.95;16.80;;;;;;;2.60;100.00;95682.91;5014936;28;20337;-65
2022/03/08 09:25:27;;;;;;;23.77;16.45;;;;;;;2.46;100.00;95693.63;4991591;28;20405;-64
2022/03/08 09:27:53;;;;;;;26.08;16.90;;;;;;;2.01;100.00;95709.13;4999065;28;20155;-66
2022/03/08 09:30:19;;;;;;;27.83;17.00;;;;;;;2.35;100.00;95704.78;5010133;28;20034;-65
2022/03/08 09:32:45;;;;;;;24.55;15.93;;;;;;;2.46;100.00;95712.97;5008098;28;20459;-65
2022/03/08 09:35:11;;;;;;;26.75;16.30;;;;;;;2.77;100.00;95708.97;5012413;28;20038;-65
2022/03/08 09:37:42;;;;;;;24.00;16.08;;;;;;;3.02;100.00;95706.56;4997234;28;20022;-65
2022/03/08 09:40:14;;;;;;;27.20;17.38;;;;;;;2.89;100.00;95710.81;5014992;28;20030;-66
2022/03/08 09:42:39;;;;;;;26.92;16.80;;;;;;;3.06;100.00;95707.78;5015195;28;20022;-65
2022/03/08 09:45:05;;;;;;;25.95;16.75;;;;;;;3.23;100.00;95713.50;5015219;28;20528;-65
2022/03/08 09:47:31;;;;;;;28.08;16.77;;;;;;;3.28;100.00;95716.34;4997463;28;20022;-66
2022/03/08 09:49:56;;;;;;;27.23;17.10;;;;;;;3.57;100.00;95712.44;5014899;28;20053;-66
2022/03/08 09:52:21;;;;;;;28.58;17.40;;;;;;;3.88;100.00;95719.75;4995821;28;20064;-66
2022/03/08 09:54:47;;;;;;;25.13;16.70;;;;;;;3.87;100.00;95723.41;5014853;28;20427;-66
2022/03/08 09:57:15;;;;;;;28.75;18.08;;;;;;;4.12;100.00;95723.56;5013527;28;20465;-66
2022/03/08 09:59:41;;;;;;;28.35;18.17;;;;;;;4.22;99.49;95727.38;5014592;28;20030;-66
2022/03/08 10:02:09;;;;;;;24.90;16.17;;;;;;;4.37;98.61;95727.16;4977130;28;20046;-66
2022/03/08 10:04:35;;;;;;;27.20;17.15;;;;;;;4.48;97.47;95726.50;4997252;28;20056;-66
2022/03/08 10:07:08;;;;;;;27.55;17.40;;;;;;;4.87;97.25;95722.81;5014568;28;20480;-66
2022/03/08 10:09:34;;;;;;;26.83;17.95;;;;;;;5.09;94.60;95720.63;5014408;28;20047;-66
2022/03/08 10:11:59;;;;;;;27.48;17.77;;;;;;;5.26;93.79;95736.03;4997258;28;20392;-66
2022/03/08 10:14:36;;;;;;;27.80;18.08;;;;;;;5.19;92.22;95733.41;5012617;28;20172;-66
2022/03/08 10:17:40;;;;;;;28.50;17.40;;;;;;;5.12;91.17;95746.75;5008750;28;20109;-66
2022/03/08 10:20:08;;;;;;;31.55;18.38;;;;;;;5.31;91.13;95752.13;5003852;28;20522;-66
2022/03/08 10:22:38;;;;;;;26.88;17.83;;;;;;;5.53;89.87;95753.41;5018055;28;20030;-66
2022/03/08 10:25:13;;;;;;;26.17;17.25;;;;;;;5.79;89.65;95755.84;5008564;28;20017;-66
2022/03/08 10:27:45;;;;;;;28.23;18.70;;;;;;;5.84;88.27;95752.53;5009645;28;20141;-67
2022/03/08 10:30:13;;;;;;;28.85;18.77;;;;;;;5.71;87.55;95761.44;5009307;28;20028;-67
2022/03/08 10:32:39;;;;;;;28.83;19.13;;;;;;;5.86;88.71;95758.47;5011435;28;20528;-67
2022/03/08 10:35:07;;;;;;;28.30;18.05;;;;;;;6.01;88.25;95755.47;5006963;28;20061;-67
2022/03/08 10:37:35;;;;;;;28.02;18.23;;;;;;;6.13;87.42;95756.38;4993924;28;20030;-65
2022/03/08 10:40:07;;;;;;;28.10;17.73;;;;;;;6.06;86.29;95756.44;5011452;28;20026;-67
2022/03/08 10:42:36;;;;;;;26.67;18.92;;;;;;;6.10;86.90;95762.13;5010363;28;20120;-67
2022/03/08 10:45:09;;;;;;;30.60;19.27;;;;;;;5.91;85.96;95761.28;5021673;28;20026;-65
2022/03/08 10:47:42;;;;;;;27.67;18.00;;;;;;;5.70;86.19;95757.16;5012831;28;20025;-67
2022/03/08 10:50:19;;;;;;;27.70;18.50;;;;;;;5.74;87.99;95762.84;5013712;28;20138;-67
2022/03/08 10:52:54;;;;;;;29.15;18.70;;;;;;;5.93;88.26;95767.19;4996055;28;20036;-67
2022/03/08 10:55:24;;;;;;;31.48;18.63;;;;;;;6.18;86.81;95774.31;5013500;28;20060;-67
2022/03/08 10:57:55;;;;;;;28.63;18.67;;;;;;;6.32;86.06;95759.88;5013427;28;20030;-67
2022/03/08 11:00:32;;;;;;;27.60;18.27;;;;;;;6.21;84.69;95764.06;5013477;28;20388;-67
2022/03/08 11:03:15;;;;;;;29.58;19.08;;;;;;;6.34;84.04;95765.78;5013583;28;20080;-67
2022/03/08 11:05:46;;;;;;;27.48;18.02;;;;;;;6.58;83.25;95764.06;5013399;28;20384;-67
2022/03/08 11:08:12;;;;;;;28.13;18.83;;;;;;;6.76;83.85;95763.25;5013258;28;20037;-67
2022/03/08 11:10:44;;;;;;;29.48;19.45;;;;;;;7.12;81.73;95762.34;5020142;23;20050;-64
2022/03/08 11:13:10;;;;;;;26.38;18.55;;;;;;;6.91;80.43;95760.97;4992677;28;20034;-64